Time;durP1;ratioP1;P1;durP2;ratioP2;P2;SDS_P1;SDS_P2;PMS_P1;PMS_P2;Temp;Humidity;BMP_temperature;BMP_pressure;BME280_temperature;BME280_humidity;BME280_pressure;Samples;Min_cycle;Max_cycle;Signal;HPM_P1;HPM_P2
2023/03/20 00:00:07;;;;;;;17.08;2.50;;;;;;;;;;5105064;28;20074;-76
2023/03/20 00:02:33;;;;;;;15.98;2.63;;;;;;;;;;5111026;28;20111;-75
2023/03/20 00:04:59;;;;;;;11.90;2.10;;;;;;;;;;5102216;28;20111;-75
2023/03/20 00:07:24;;;;;;;13.10;2.75;;;;;;;;;;5108894;28;20062;-75
2023/03/20 00:09:50;;;;;;;9.32;1.88;;;;;;;;;;5111456;28;20027;-75
2023/03/20 00:12:22;;;;;;;20.50;2.15;;;;;;;;;;5108719;28;20039;-75
2023/03/20 00:14:47;;;;;;;14.82;2.38;;;;;;;;;;5110584;28;20046;-76
2023/03/20 00:17:18;;;;;;;11.25;2.78;;;;;;;;;;5112694;28;20114;-76
2023/03/20 00:19:45;;;;;;;10.60;2.55;;;;;;;;;;5100694;28;20458;-75
2023/03/20 00:22:10;;;;;;;17.23;2.35;;;;;;;;;;5111039;28;20105;-76
2023/03/20 00:24:36;;;;;;;19.15;2.55;;;;;;;;;;5112015;28;20053;-76
2023/03/20 00:27:02;;;;;;;12.55;2.63;;;;;;;;;;5108421;28;20047;-75
2023/03/20 00:29:29;;;;;;;15.65;2.70;;;;;;;;;;5113218;28;20020;-75
2023/03/20 00:31:56;;;;;;;13.80;2.15;;;;;;;;;;5109121;28;20040;-76
2023/03/20 00:34:24;;;;;;;22.55;2.47;;;;;;;;;;5110723;28;20097;-75
2023/03/20 00:36:50;;;;;;;14.15;2.13;;;;;;;;;;5104049;28;20428;-75
2023/03/20 00:39:16;;;;;;;14.50;2.10;;;;;;;;;;5110183;28;20469;-76
2023/03/20 00:41:51;;;;;;;17.38;2.85;;;;;;;;;;5109041;28;20086;-75
2023/03/20 00:44:34;;;;;;;17.75;2.35;;;;;;;;;;5094210;28;20035;-76
2023/03/20 00:47:02;;;;;;;17.48;2.50;;;;;;;;;;5105300;28;20067;-75
2023/03/20 00:49:32;;;;;;;9.35;2.40;;;;;;;;;;5108221;28;20051;-75
2023/03/20 00:52:00;;;;;;;16.52;2.20;;;;;;;;;;5108893;28;20043;-75
2023/03/20 00:54:25;;;;;;;14.52;1.67;;;;;;;;;;5113690;28;20057;-76
2023/03/20 00:56:54;;;;;;;14.27;2.05;;;;;;;;;;5109297;28;20514;-75
2023/03/20 00:59:21;;;;;;;18.00;2.30;;;;;;;;;;5106034;28;20043;-75
2023/03/20 01:01:47;;;;;;;9.70;2.38;;;;;;;;;;5103920;28;20116;-75
2023/03/20 01:04:14;;;;;;;13.10;2.00;;;;;;;;;;5099133;28;20032;-76
2023/03/20 01:06:40;;;;;;;14.15;2.50;;;;;;;;;;5110571;28;20462;-76
2023/03/20 01:09:06;;;;;;;10.18;1.98;;;;;;;;;;5107404;28;20020;-76
2023/03/20 01:11:31;;;;;;;13.80;1.80;;;;;;;;;;5111229;28;20063;-75
2023/03/20 01:13:56;;;;;;;9.50;1.65;;;;;;;;;;5113648;28;20043;-75
2023/03/20 01:16:24;;;;;;;11.20;2.30;;;;;;;;;;5107761;28;20027;-75
2023/03/20 01:18:50;;;;;;;10.15;1.77;;;;;;;;;;5100980;28;20059;-75
2023/03/20 01:21:17;;;;;;;15.07;2.22;;;;;;;;;;5100173;28;20115;-75
2023/03/20 01:23:42;;;;;;;13.75;1.75;;;;;;;;;;5110615;28;20483;-75
2023/03/20 01:26:31;;;;;;;8.85;2.10;;;;;;;;;;5112799;28;20062;-76
2023/03/20 01:28:56;;;;;;;17.58;2.10;;;;;;;;;;5112049;28;20048;-75
2023/03/20 01:31:22;;;;;;;10.02;1.45;;;;;;;;;;5106259;28;20054;-76
2023/03/20 01:33:47;;;;;;;8.77;1.98;;;;;;;;;;5106997;28;20115;-75
2023/03/20 01:36:14;;;;;;;19.27;2.08;;;;;;;;;;5110550;28;20035;-75
2023/03/20 01:38:40;;;;;;;14.75;2.67;;;;;;;;;;5112142;28;20043;-75
2023/03/20 01:41:12;;;;;;;9.45;2.35;;;;;;;;;;5114937;28;20039;-75
2023/03/20 01:43:39;;;;;;;5.68;1.55;;;;;;;;;;5112623;28;20066;-75
2023/03/20 01:46:13;;;;;;;8.55;1.92;;;;;;;;;;5103871;28;20470;-75
2023/03/20 01:48:51;;;;;;;11.60;1.90;;;;;;;;;;5109843;28;20101;-76
2023/03/20 01:51:23;;;;;;;9.15;2.30;;;;;;;;;;5112517;28;20546;-75
2023/03/20 01:53:54;;;;;;;10.95;2.28;;;;;;;;;;5105115;28;20051;-75
2023/03/20 01:56:19;;;;;;;13.82;2.30;;;;;;;;;;5109893;28;20498;-76
2023/03/20 01:58:51;;;;;;;9.05;1.95;;;;;;;;;;5113845;28;20074;-75
2023/03/20 02:01:17;;;;;;;7.60;2.22;;;;;;;;;;5111659;28;20383;-76
2023/03/20 02:03:45;;;;;;;11.13;2.42;;;;;;;;;;5115117;28;20031;-75
2023/03/20 02:06:11;;;;;;;10.07;2.33;;;;;;;;;;5099805;28;20369;-75
2023/03/20 02:08:41;;;;;;;15.48;1.92;;;;;;;;;;5105556;28;20034;-75
2023/03/20 02:11:07;;;;;;;15.50;2.33;;;;;;;;;;5114408;28;20387;-75
2023/03/20 02:13:33;;;;;;;16.08;2.25;;;;;;;;;;5114715;28;20050;-75
2023/03/20 02:16:15;;;;;;;11.50;1.98;;;;;;;;;;5105022;28;20023;-75
2023/03/20 02:18:43;;;;;;;13.63;2.15;;;;;;;;;;5115300;28;20119;-75
2023/03/20 02:21:42;;;;;;;8.73;1.80;;;;;;;;;;5111920;28;20498;-75
2023/03/20 02:24:45;;;;;;;10.93;2.20;;;;;;;;;;5108995;28;20043;-75
2023/03/20 02:27:38;;;;;;;15.05;2.13;;;;;;;;;;5101103;28;20367;-76
2023/03/20 02:30:13;;;;;;;15.65;2.00;;;;;;;;;;5095678;28;20082;-75
2023/03/20 02:33:16;;;;;;;13.57;2.70;;;;;;;;;;5108583;28;20035;-75
2023/03/20 02:36:24;;;;;;;11.13;1.92;;;;;;;;;;5109082;28;20058;-75
2023/03/20 02:39:11;;;;;;;12.73;2.15;;;;;;;;;;5107271;28;20070;-75
2023/03/20 02:41:51;;;;;;;11.05;2.58;;;;;;;;;;5114471;28;20467;-76
2023/03/20 02:44:32;;;;;;;18.83;2.70;;;;;;;;;;5115024;28;20031;-75
2023/03/20 02:47:15;;;;;;;11.82;2.30;;;;;;;;;;5114082;28;20122;-75
2023/03/20 02:49:59;;;;;;;12.07;2.80;;;;;;;;;;5114880;28;20028;-75
2023/03/20 02:52:28;;;;;;;;;;;;;;;;;;5102995;28;20039;-75
2023/03/20 02:55:03;;;;;;;9.20;1.95;;;;;;;;;;5107977;28;19931;-75
2023/03/20 02:57:42;;;;;;;15.30;2.30;;;;;;;;;;5114241;28;20410;-75
2023/03/20 03:00:17;;;;;;;10.13;2.25;;;;;;;;;;5112487;28;20032;-75
2023/03/20 03:03:01;;;;;;;7.07;2.65;;;;;;;;;;5112183;28;20123;-75
2023/03/20 03:05:30;;;;;;;;;;;;;;;;;;5105529;28;20082;-75
2023/03/20 03:07:59;;;;;;;16.48;2.17;;;;;;;;;;5109808;28;19919;-75
2023/03/20 03:10:29;;;;;;;15.00;2.28;;;;;;;;;;5115573;28;20035;-76
2023/03/20 03:12:57;;;;;;;7.60;2.15;;;;;;;;;;5105405;28;20043;-74
2023/03/20 03:15:44;;;;;;;12.95;2.45;;;;;;;;;;5113797;28;20036;-75
2023/03/20 03:18:19;;;;;;;8.48;2.22;;;;;;;;;;5105127;28;20427;-75
2023/03/20 03:20:47;;;;;;;23.05;2.83;;;;;;;;;;5106975;28;20495;-76
2023/03/20 03:23:28;;;;;;;7.40;2.55;;;;;;;;;;5105127;28;20095;-75
2023/03/20 03:25:56;;;;;;;15.32;2.55;;;;;;;;;;5115040;28;20036;-75
2023/03/20 03:28:31;;;;;;;9.48;2.35;;;;;;;;;;5108690;28;20035;-75
2023/03/20 03:30:57;;;;;;;9.55;1.98;;;;;;;;;;5113692;28;20042;-75
2023/03/20 03:33:27;;;;;;;15.07;3.00;;;;;;;;;;5113314;28;20044;-75
2023/03/20 03:36:05;;;;;;;5.72;1.80;;;;;;;;;;5102824;28;20103;-75
2023/03/20 03:38:36;;;;;;;9.00;2.65;;;;;;;;;;5112106;28;20367;-75
2023/03/20 03:41:09;;;;;;;7.65;2.17;;;;;;;;;;5104685;28;20039;-75
2023/03/20 03:43:40;;;;;;;12.32;2.20;;;;;;;;;;5112535;28;20047;-75
2023/03/20 03:46:41;;;;;;;10.43;1.70;;;;;;;;;;5113444;28;20035;-75
2023/03/20 03:49:10;;;;;;;11.93;2.53;;;;;;;;;;5095692;28;20059;-75
2023/03/20 03:51:37;;;;;;;14.73;2.30;;;;;;;;;;5111554;28;20027;-76
2023/03/20 03:54:07;;;;;;;7.65;2.05;;;;;;;;;;5101167;28;20048;-75
2023/03/20 03:56:34;;;;;;;7.63;2.00;;;;;;;;;;5112409;28;20035;-75
2023/03/20 03:59:03;;;;;;;6.80;2.60;;;;;;;;;;5107353;28;20049;-76
2023/03/20 04:01:31;;;;;;;10.75;2.17;;;;;;;;;;5112258;28;20687;-75
2023/03/20 04:03:59;;;;;;;5.20;2.25;;;;;;;;;;5103430;28;20535;-75
2023/03/20 04:06:26;;;;;;;6.13;1.83;;;;;;;;;;5113152;28;20052;-75
2023/03/20 04:08:51;;;;;;;8.98;1.83;;;;;;;;;;5109359;28;20063;-76
2023/03/20 04:11:23;;;;;;;7.35;1.92;;;;;;;;;;5112751;28;20120;-75
2023/03/20 04:13:50;;;;;;;7.50;1.90;;;;;;;;;;5112742;28;20044;-76
2023/03/20 04:16:16;;;;;;;5.35;1.60;;;;;;;;;;5114312;28;20054;-75
2023/03/20 04:18:42;;;;;;;5.88;2.00;;;;;;;;;;5110288;28;20032;-75
2023/03/20 04:21:08;;;;;;;9.77;2.20;;;;;;;;;;5113958;28;20034;-75
2023/03/20 04:23:33;;;;;;;10.50;1.85;;;;;;;;;;5105477;28;20089;-75
2023/03/20 04:25:59;;;;;;;9.68;2.10;;;;;;;;;;5111436;28;20433;-75
2023/03/20 04:28:24;;;;;;;6.82;1.75;;;;;;;;;;5100119;28;20038;-76
2023/03/20 04:30:54;;;;;;;11.85;1.73;;;;;;;;;;5102054;28;20391;-75
2023/03/20 04:33:20;;;;;;;5.80;2.15;;;;;;;;;;5106616;28;20124;-76
2023/03/20 04:35:46;;;;;;;6.28;2.10;;;;;;;;;;5105909;28;20036;-75
2023/03/20 04:38:12;;;;;;;8.98;2.17;;;;;;;;;;5104558;28;20097;-75
2023/03/20 04:40:37;;;;;;;3.95;1.75;;;;;;;;;;5113615;28;20122;-75
2023/03/20 04:43:03;;;;;;;6.72;1.80;;;;;;;;;;5109731;28;20463;-75
2023/03/20 04:45:28;;;;;;;13.93;2.42;;;;;;;;;;5112563;28;20433;-75
2023/03/20 04:47:53;;;;;;;7.43;1.92;;;;;;;;;;5112881;28;20031;-75
2023/03/20 04:50:19;;;;;;;4.82;2.08;;;;;;;;;;5113256;28;20534;-75
2023/03/20 04:52:44;;;;;;;5.32;1.65;;;;;;;;;;5107396;28;20123;-76
2023/03/20 04:55:10;;;;;;;10.10;2.00;;;;;;;;;;5108306;28;20126;-76
2023/03/20 04:57:36;;;;;;;6.88;1.60;;;;;;;;;;5105731;28;20092;-75
2023/03/20 05:00:03;;;;;;;12.65;2.40;;;;;;;;;;5099346;28;20066;-75
2023/03/20 05:02:29;;;;;;;8.07;2.20;;;;;;;;;;5105430;28;20525;-75
2023/03/20 05:04:54;;;;;;;7.75;1.63;;;;;;;;;;5110485;28;20065;-75
2023/03/20 05:07:20;;;;;;;5.32;1.45;;;;;;;;;;5111913;28;20035;-75
2023/03/20 05:09:46;;;;;;;4.40;1.75;;;;;;;;;;5113211;28;20504;-75
2023/03/20 05:12:12;;;;;;;11.02;1.30;;;;;;;;;;5110518;28;20042;-76
2023/03/20 05:14:37;;;;;;;3.30;1.20;;;;;;;;;;5100837;28;20489;-76
2023/03/20 05:17:03;;;;;;;5.13;1.45;;;;;;;;;;5099460;28;20047;-75
2023/03/20 05:19:28;;;;;;;4.47;1.40;;;;;;;;;;5107899;28;20023;-75
2023/03/20 05:21:53;;;;;;;8.25;1.92;;;;;;;;;;5108661;28;20383;-75
2023/03/20 05:24:19;;;;;;;5.95;1.40;;;;;;;;;;5106234;28;20464;-75
2023/03/20 05:26:45;;;;;;;3.55;1.50;;;;;;;;;;5101288;28;20039;-75
2023/03/20 05:29:10;;;;;;;5.93;1.48;;;;;;;;;;5113537;28;20040;-75
2023/03/20 05:31:36;;;;;;;6.72;1.33;;;;;;;;;;5104536;28;20038;-75
2023/03/20 05:34:01;;;;;;;3.35;1.23;;;;;;;;;;5108256;28;20043;-76
2023/03/20 05:36:27;;;;;;;3.53;1.10;;;;;;;;;;5111675;28;21510;-76
2023/03/20 05:38:52;;;;;;;3.60;1.30;;;;;;;;;;5111065;28;20039;-75
2023/03/20 05:41:17;;;;;;;4.97;1.40;;;;;;;;;;5112788;28;20035;-75
2023/03/20 05:43:43;;;;;;;3.22;1.25;;;;;;;;;;5110442;28;20035;-75
2023/03/20 05:46:08;;;;;;;4.13;1.30;;;;;;;;;;5101940;28;20525;-75
2023/03/20 05:48:34;;;;;;;5.25;1.40;;;;;;;;;;5112443;28;20375;-76
2023/03/20 05:50:59;;;;;;;5.35;1.63;;;;;;;;;;5112358;28;20464;-75
2023/03/20 05:53:25;;;;;;;3.70;1.50;;;;;;;;;;5112899;28;20062;-76
2023/03/20 05:55:50;;;;;;;4.75;1.10;;;;;;;;;;5112168;28;20050;-75
2023/03/20 05:58:16;;;;;;;1.73;0.80;;;;;;;;;;5104131;28;20556;-75
2023/03/20 06:00:41;;;;;;;2.08;1.02;;;;;;;;;;5107214;28;20542;-76
2023/03/20 06:03:07;;;;;;;6.40;1.33;;;;;;;;;;5100981;28;20495;-75
2023/03/20 06:05:34;;;;;;;2.70;1.08;;;;;;;;;;5110988;28;20114;-76
2023/03/20 06:07:59;;;;;;;2.22;1.40;;;;;;;;;;5108059;28;20040;-75
2023/03/20 06:10:26;;;;;;;4.88;1.30;;;;;;;;;;5111692;28;20462;-76
2023/03/20 06:12:52;;;;;;;4.90;1.27;;;;;;;;;;5107721;28;20032;-75
2023/03/20 06:15:17;;;;;;;3.85;1.70;;;;;;;;;;5112496;28;20038;-75
2023/03/20 06:17:42;;;;;;;5.32;1.50;;;;;;;;;;5109676;28;20483;-75
2023/03/20 06:20:09;;;;;;;5.72;1.80;;;;;;;;;;5101880;28;20104;-76
2023/03/20 06:22:34;;;;;;;4.63;1.48;;;;;;;;;;5105246;28;20031;-75
2023/03/20 06:25:00;;;;;;;5.82;1.60;;;;;;;;;;5111812;28;20399;-75
2023/03/20 06:27:26;;;;;;;4.22;1.60;;;;;;;;;;5103906;28;20036;-75
2023/03/20 06:29:51;;;;;;;5.00;1.98;;;;;;;;;;5110197;28;20039;-75
2023/03/20 06:32:17;;;;;;;2.50;1.52;;;;;;;;;;5116388;28;20443;-75
2023/03/20 06:34:42;;;;;;;4.10;1.90;;;;;;;;;;5115633;27;20482;-75
2023/03/20 06:37:08;;;;;;;3.08;1.20;;;;;;;;;;5115902;28;20495;-76
2023/03/20 06:39:33;;;;;;;6.53;1.30;;;;;;;;;;5112348;28;20066;-76
2023/03/20 06:41:59;;;;;;;3.63;1.55;;;;;;;;;;5114927;28;20035;-76
2023/03/20 06:44:25;;;;;;;3.30;1.58;;;;;;;;;;5113009;28;20027;-75
2023/03/20 06:46:51;;;;;;;5.80;1.60;;;;;;;;;;5113629;28;20067;-75
2023/03/20 06:49:16;;;;;;;6.47;1.65;;;;;;;;;;5111828;28;20484;-75
2023/03/20 06:51:42;;;;;;;7.55;1.80;;;;;;;;;;5109195;28;20171;-76
2023/03/20 06:54:07;;;;;;;4.55;1.60;;;;;;;;;;5111430;28;20214;-76
2023/03/20 06:56:33;;;;;;;3.95;1.60;;;;;;;;;;5107294;28;20059;-75
2023/03/20 06:58:58;;;;;;;3.90;1.50;;;;;;;;;;5111969;28;20051;-75
2023/03/20 07:01:24;;;;;;;5.60;1.90;;;;;;;;;;5111599;28;20074;-75
2023/03/20 07:03:50;;;;;;;3.78;1.77;;;;;;;;;;5115991;28;20096;-76
2023/03/20 07:06:17;;;;;;;5.57;1.70;;;;;;;;;;5115394;28;20040;-76
2023/03/20 07:08:42;;;;;;;6.85;1.73;;;;;;;;;;5101963;28;20118;-76
2023/03/20 07:11:08;;;;;;;3.72;2.10;;;;;;;;;;5105207;28;20123;-75
2023/03/20 07:13:34;;;;;;;4.88;2.08;;;;;;;;;;5114510;28;20497;-75
2023/03/20 07:16:01;;;;;;;4.13;2.08;;;;;;;;;;5115231;28;20032;-75
2023/03/20 07:18:27;;;;;;;3.72;1.83;;;;;;;;;;5115072;28;20425;-75
2023/03/20 07:20:53;;;;;;;6.43;2.10;;;;;;;;;;5113848;28;20043;-75
2023/03/20 07:23:18;;;;;;;4.22;2.15;;;;;;;;;;5113144;28;20036;-76
2023/03/20 07:25:45;;;;;;;7.75;1.98;;;;;;;;;;5114834;28;20032;-75
2023/03/20 07:28:11;;;;;;;7.18;2.00;;;;;;;;;;5114717;28;20063;-76
2023/03/20 07:30:36;;;;;;;5.78;2.13;;;;;;;;;;5115063;28;20062;-75
2023/03/20 07:33:02;;;;;;;5.35;1.75;;;;;;;;;;5110404;28;20539;-75
2023/03/20 07:35:27;;;;;;;4.72;1.73;;;;;;;;;;5107690;28;20345;-75
2023/03/20 07:37:53;;;;;;;3.78;2.03;;;;;;;;;;5110914;28;20031;-76
2023/03/20 07:40:18;;;;;;;4.40;1.75;;;;;;;;;;5114580;28;20180;-76
2023/03/20 07:42:44;;;;;;;3.00;1.60;;;;;;;;;;5108517;28;20032;-75
2023/03/20 07:45:10;;;;;;;4.28;1.70;;;;;;;;;;5112660;28;20065;-76
2023/03/20 07:47:35;;;;;;;4.55;1.60;;;;;;;;;;5114208;28;20124;-76
2023/03/20 07:50:01;;;;;;;4.57;1.70;;;;;;;;;;5110497;28;20027;-76
2023/03/20 07:52:26;;;;;;;8.35;1.77;;;;;;;;;;5109584;28;20418;-76
2023/03/20 07:54:52;;;;;;;3.28;1.63;;;;;;;;;;5109126;28;20491;-76
2023/03/20 07:57:17;;;;;;;3.60;1.70;;;;;;;;;;5111049;28;20035;-76
2023/03/20 07:59:43;;;;;;;2.88;1.63;;;;;;;;;;5114298;28;20032;-76
2023/03/20 08:02:15;;;;;;;5.40;1.60;;;;;;;;;;5108548;28;20044;-76
2023/03/20 08:04:41;;;;;;;3.15;1.70;;;;;;;;;;5108900;28;20498;-75
2023/03/20 08:07:07;;;;;;;4.35;2.10;;;;;;;;;;5105869;28;20042;-76
2023/03/20 08:09:32;;;;;;;6.25;1.80;;;;;;;;;;5103141;28;20040;-75
2023/03/20 08:11:58;;;;;;;7.80;2.58;;;;;;;;;;5102607;28;20387;-75
2023/03/20 08:14:23;;;;;;;7.30;2.63;;;;;;;;;;5106427;28;20467;-75
2023/03/20 08:16:49;;;;;;;4.47;1.90;;;;;;;;;;5110048;28;20556;-76
2023/03/20 08:19:14;;;;;;;4.97;1.67;;;;;;;;;;5111385;28;20043;-75
2023/03/20 08:21:40;;;;;;;3.17;1.40;;;;;;;;;;5108172;28;20046;-77
2023/03/20 08:24:06;;;;;;;3.53;1.25;;;;;;;;;;5111834;28;20043;-76
2023/03/20 08:26:32;;;;;;;1.85;0.90;;;;;;;;;;5113595;28;20043;-76
2023/03/20 08:28:58;;;;;;;2.80;1.08;;;;;;;;;;5108229;27;20050;-77
2023/03/20 08:31:23;;;;;;;2.13;0.90;;;;;;;;;;5108640;28;20424;-78
2023/03/20 08:33:49;;;;;;;2.78;0.95;;;;;;;;;;5102769;28;20126;-77
2023/03/20 08:36:15;;;;;;;2.00;0.98;;;;;;;;;;5106418;28;20364;-78
2023/03/20 08:38:41;;;;;;;3.10;1.20;;;;;;;;;;5098216;28;20123;-77
2023/03/20 08:41:07;;;;;;;2.00;1.00;;;;;;;;;;5107736;28;20135;-77
2023/03/20 08:43:32;;;;;;;3.00;1.20;;;;;;;;;;5108617;28;20027;-77
2023/03/20 08:45:58;;;;;;;2.35;1.10;;;;;;;;;;5107513;28;20036;-77
2023/03/20 08:48:25;;;;;;;1.60;0.90;;;;;;;;;;5105227;28;20449;-78
2023/03/20 08:50:50;;;;;;;1.98;0.90;;;;;;;;;;5107257;28;20500;-76
2023/03/20 08:53:16;;;;;;;1.95;1.10;;;;;;;;;;5108551;28;20031;-76
2023/03/20 08:55:47;;;;;;;1.95;0.90;;;;;;;;;;5108061;28;20040;-77
2023/03/20 08:58:13;;;;;;;3.15;0.93;;;;;;;;;;5111177;28;20118;-76
2023/03/20 09:00:38;;;;;;;1.48;0.88;;;;;;;;;;5105641;28;20115;-76
2023/03/20 09:03:04;;;;;;;2.05;1.10;;;;;;;;;;5105204;28;20040;-76
2023/03/20 09:05:29;;;;;;;2.00;1.15;;;;;;;;;;5110562;28;20482;-76
2023/03/20 09:07:54;;;;;;;1.48;0.80;;;;;;;;;;5106840;28;20036;-76
2023/03/20 09:10:20;;;;;;;1.85;0.88;;;;;;;;;;5111235;28;20036;-76
2023/03/20 09:12:45;;;;;;;2.22;0.85;;;;;;;;;;5110553;28;20077;-75
2023/03/20 09:15:11;;;;;;;1.70;1.00;;;;;;;;;;5100880;28;20046;-76
2023/03/20 09:17:36;;;;;;;2.63;0.90;;;;;;;;;;5110515;28;20655;-76
2023/03/20 09:20:02;;;;;;;2.55;1.17;;;;;;;;;;5102127;28;20027;-76
2023/03/20 09:22:28;;;;;;;3.20;1.08;;;;;;;;;;5091948;28;20432;-76
2023/03/20 09:24:53;;;;;;;1.90;1.00;;;;;;;;;;5105304;28;20036;-76
2023/03/20 09:27:19;;;;;;;2.30;1.20;;;;;;;;;;5088405;28;20044;-76
2023/03/20 09:29:44;;;;;;;2.03;0.90;;;;;;;;;;5091837;28;20368;-76
2023/03/20 09:32:14;;;;;;;2.20;0.90;;;;;;;;;;5106429;28;20035;-76
2023/03/20 09:34:39;;;;;;;1.55;0.80;;;;;;;;;;5102783;28;20077;-76
2023/03/20 09:37:05;;;;;;;2.63;0.80;;;;;;;;;;5108634;28;20059;-76
2023/03/20 09:39:31;;;;;;;1.33;0.80;;;;;;;;;;5098247;28;20100;-77
2023/03/20 09:42:01;;;;;;;3.08;0.90;;;;;;;;;;5108715;28;20035;-76
2023/03/20 09:44:27;;;;;;;1.73;0.88;;;;;;;;;;5095854;28;20536;-76
2023/03/20 09:46:55;;;;;;;1.67;0.85;;;;;;;;;;5103503;28;20048;-76
2023/03/20 09:49:24;;;;;;;1.90;0.90;;;;;;;;;;5092336;28;20039;-76
2023/03/20 09:51:57;;;;;;;1.27;0.70;;;;;;;;;;5105188;28;20483;-76
2023/03/20 09:54:28;;;;;;;1.88;0.70;;;;;;;;;;5105011;28;20070;-76
2023/03/20 09:56:55;;;;;;;0.73;0.50;;;;;;;;;;5102157;28;20039;-76
2023/03/20 09:59:23;;;;;;;1.15;0.60;;;;;;;;;;5104170;28;20030;-76
2023/03/20 10:01:56;;;;;;;1.50;0.70;;;;;;;;;;5108817;28;20484;-76
2023/03/20 10:04:25;;;;;;;2.08;0.80;;;;;;;;;;5102349;28;20040;-77
2023/03/20 10:06:50;;;;;;;1.88;0.75;;;;;;;;;;5100237;28;20040;-77
2023/03/20 10:09:22;;;;;;;1.92;0.82;;;;;;;;;;5101816;28;20038;-77
2023/03/20 10:12:45;;;;;;;2.70;0.95;;;;;;;;;;5109835;28;20051;-76
2023/03/20 10:15:28;;;;;;;2.30;1.00;;;;;;;;;;5066613;28;20156;-75
2023/03/20 10:18:23;;;;;;;2.00;0.80;;;;;;;;;;5103301;28;20093;-76
2023/03/20 10:21:12;;;;;;;1.92;1.10;;;;;;;;;;5100336;28;20087;-76
2023/03/20 10:23:53;;;;;;;1.50;0.70;;;;;;;;;;5102040;28;20543;-77
2023/03/20 10:26:21;;;;;;;1.40;0.80;;;;;;;;;;5100835;28;20047;-76
2023/03/20 10:29:00;;;;;;;1.50;0.70;;;;;;;;;;5103737;28;20043;-75
2023/03/20 10:31:44;;;;;;;1.13;0.60;;;;;;;;;;5102441;28;20372;-76
2023/03/20 10:34:15;;;;;;;2.13;0.80;;;;;;;;;;5097183;28;20076;-76
2023/03/20 10:36:47;;;;;;;1.17;0.73;;;;;;;;;;5110546;27;20035;-77
2023/03/20 10:39:36;;;;;;;1.42;0.80;;;;;;;;;;5105335;28;20039;-76
2023/03/20 10:42:05;;;;;;;2.10;1.10;;;;;;;;;;5108587;28;20035;-76
2023/03/20 10:44:35;;;;;;;1.08;0.60;;;;;;;;;;5105326;28;21292;-76
2023/03/20 10:47:02;;;;;;;1.15;0.68;;;;;;;;;;5109644;28;20044;-76
2023/03/20 10:49:42;;;;;;;0.70;0.50;;;;;;;;;;5108135;28;20107;-76
2023/03/20 10:52:17;;;;;;;1.20;0.70;;;;;;;;;;5106882;28;20423;-76
2023/03/20 10:54:45;;;;;;;1.65;0.70;;;;;;;;;;5103963;28;20135;-75
2023/03/20 10:57:22;;;;;;;1.42;0.70;;;;;;;;;;5103461;28;20758;-76
2023/03/20 10:59:49;;;;;;;3.05;0.70;;;;;;;;;;5106322;28;20046;-76
2023/03/20 11:02:17;;;;;;;1.50;0.80;;;;;;;;;;5097894;28;21093;-76
2023/03/20 11:04:42;;;;;;;1.25;0.65;;;;;;;;;;5102571;28;20105;-76
2023/03/20 11:07:10;;;;;;;2.80;1.10;;;;;;;;;;5110179;28;20035;-77
2023/03/20 11:09:36;;;;;;;2.70;1.58;;;;;;;;;;5110290;28;20036;-76
2023/03/20 11:12:02;;;;;;;1.75;1.00;;;;;;;;;;5106486;28;20084;-76
2023/03/20 11:14:36;;;;;;;1.30;0.60;;;;;;;;;;5106004;28;20031;-76
2023/03/20 11:17:03;;;;;;;3.33;1.13;;;;;;;;;;5101078;28;20044;-76
2023/03/20 11:19:34;;;;;;;1.60;0.90;;;;;;;;;;5104527;28;20130;-76
2023/03/20 11:22:20;;;;;;;1.63;0.93;;;;;;;;;;5098300;28;20048;-76
2023/03/20 11:24:48;;;;;;;1.65;0.90;;;;;;;;;;5100883;28;20027;-75
2023/03/20 11:27:16;;;;;;;1.70;0.90;;;;;;;;;;5097614;28;20047;-75
2023/03/20 11:29:42;;;;;;;1.95;0.80;;;;;;;;;;5105489;28;20036;-76
2023/03/20 11:32:36;;;;;;;2.05;0.90;;;;;;;;;;5107010;28;20067;-77
2023/03/20 11:35:21;;;;;;;1.50;0.70;;;;;;;;;;5109147;28;20039;-76
2023/03/20 11:37:51;;;;;;;1.13;0.50;;;;;;;;;;5110332;28;20040;-76
2023/03/20 11:40:29;;;;;;;1.48;0.65;;;;;;;;;;5105889;28;20027;-76
2023/03/20 11:43:00;;;;;;;1.05;0.50;;;;;;;;;;5105772;28;20067;-76
2023/03/20 11:45:33;;;;;;;1.05;0.60;;;;;;;;;;5109550;28;20092;-76
2023/03/20 11:47:59;;;;;;;1.35;0.60;;;;;;;;;;5093596;28;20052;-75
2023/03/20 11:50:25;;;;;;;0.88;0.60;;;;;;;;;;5098158;28;20043;-77
2023/03/20 11:52:51;;;;;;;0.90;0.57;;;;;;;;;;5109607;28;20035;-77
2023/03/20 11:55:26;;;;;;;0.93;0.60;;;;;;;;;;5106823;28;20052;-77
2023/03/20 11:57:58;;;;;;;2.10;0.60;;;;;;;;;;5099954;28;20035;-77
2023/03/20 12:00:28;;;;;;;1.50;0.98;;;;;;;;;;5105684;28;20049;-76
2023/03/20 12:02:53;;;;;;;1.00;0.60;;;;;;;;;;5101030;28;20036;-76
2023/03/20 12:05:41;;;;;;;1.60;0.60;;;;;;;;;;5104918;28;20031;-77
2023/03/20 12:08:13;;;;;;;2.20;0.90;;;;;;;;;;5106866;28;20039;-77
2023/03/20 12:10:41;;;;;;;3.15;0.95;;;;;;;;;;5102653;28;20382;-77
2023/03/20 12:13:10;;;;;;;2.58;1.10;;;;;;;;;;5100679;28;20036;-77
2023/03/20 12:15:43;;;;;;;2.05;0.88;;;;;;;;;;5107496;28;20031;-77
2023/03/20 12:18:14;;;;;;;1.98;1.10;;;;;;;;;;5102447;28;20453;-77
2023/03/20 12:20:49;;;;;;;3.40;1.88;;;;;;;;;;5105913;28;20107;-77
2023/03/20 12:23:26;;;;;;;2.47;1.48;;;;;;;;;;5093240;28;20032;-76
2023/03/20 12:26:03;;;;;;;3.63;2.00;;;;;;;;;;5104306;28;20093;-75
2023/03/20 12:28:35;;;;;;;0.50;0.43;;;;;;;;;;5106526;28;20498;-77
2023/03/20 12:31:26;;;;;;;0.88;0.60;;;;;;;;;;5098645;28;20046;-76
2023/03/20 12:34:14;;;;;;;2.85;1.52;;;;;;;;;;5108752;28;20043;-77
2023/03/20 12:36:45;;;;;;;5.90;3.47;;;;;;;;;;5103644;28;20032;-76
2023/03/20 12:39:14;;;;;;;1.65;1.00;;;;;;;;;;5106889;28;20028;-76
2023/03/20 12:41:59;;;;;;;1.20;0.77;;;;;;;;;;5105164;28;20402;-76
2023/03/20 12:44:52;;;;;;;1.25;0.75;;;;;;;;;;5109144;28;20160;-75
2023/03/20 12:47:26;;;;;;;2.70;1.00;;;;;;;;;;5099103;28;20043;-77
2023/03/20 12:49:58;;;;;;;1.63;0.68;;;;;;;;;;5097626;28;20398;-77
2023/03/20 12:52:51;;;;;;;0.98;0.70;;;;;;;;;;5097792;28;20035;-76
2023/03/20 12:55:34;;;;;;;2.17;0.98;;;;;;;;;;5097544;28;20119;-76
2023/03/20 12:58:23;;;;;;;2.63;1.30;;;;;;;;;;5107503;28;20403;-76
2023/03/20 13:01:12;;;;;;;1.83;1.10;;;;;;;;;;5096421;28;20540;-76
2023/03/20 13:04:35;;;;;;;2.03;0.90;;;;;;;;;;5105563;28;20036;-76
2023/03/20 13:07:02;;;;;;;5.53;2.85;;;;;;;;;;5063922;28;20047;-76
2023/03/20 13:09:27;;;;;;;2.75;1.10;;;;;;;;;;5042451;28;20044;-76
2023/03/20 13:12:14;;;;;;;1.80;1.00;;;;;;;;;;5079466;28;20047;-77
2023/03/20 13:14:52;;;;;;;2.45;0.90;;;;;;;;;;5100243;28;20120;-76
2023/03/20 13:17:29;;;;;;;1.27;0.70;;;;;;;;;;5104956;28;20035;-76
2023/03/20 13:20:06;;;;;;;1.90;0.88;;;;;;;;;;5103675;28;20040;-76
2023/03/20 13:22:58;;;;;;;2.40;1.02;;;;;;;;;;5096493;28;20032;-75
2023/03/20 13:25:52;;;;;;;2.35;1.15;;;;;;;;;;5088037;28;20047;-76
2023/03/20 13:28:36;;;;;;;2.28;0.80;;;;;;;;;;5100277;28;20506;-76
2023/03/20 13:31:22;;;;;;;2.38;0.93;;;;;;;;;;5101580;28;20544;-77
2023/03/20 13:34:14;;;;;;;2.03;1.00;;;;;;;;;;5099999;28;21042;-77
2023/03/20 13:37:08;;;;;;;1.80;0.93;;;;;;;;;;5065780;28;20050;-76
2023/03/20 13:39:38;;;;;;;2.38;1.00;;;;;;;;;;5103165;28;20055;-77
2023/03/20 13:42:07;;;;;;;2.20;1.00;;;;;;;;;;5106076;28;20043;-76
2023/03/20 13:44:33;;;;;;;2.25;1.05;;;;;;;;;;5101626;28;20080;-76
2023/03/20 13:47:06;;;;;;;1.58;1.00;;;;;;;;;;5104459;28;20035;-77
2023/03/20 13:49:48;;;;;;;3.45;1.20;;;;;;;;;;5108892;28;20032;-77
2023/03/20 13:52:20;;;;;;;2.58;1.13;;;;;;;;;;5107657;28;20044;-77
2023/03/20 13:54:55;;;;;;;4.10;1.48;;;;;;;;;;5105381;28;20051;-77
2023/03/20 13:57:45;;;;;;;1.73;1.00;;;;;;;;;;5108183;28;20131;-77
2023/03/20 14:00:42;;;;;;;1.90;0.98;;;;;;;;;;5105215;28;20063;-76
2023/03/20 14:03:19;;;;;;;3.47;0.93;;;;;;;;;;5107415;28;20036;-77
2023/03/20 14:05:46;;;;;;;1.88;0.90;;;;;;;;;;5103765;28;20544;-77
2023/03/20 14:08:27;;;;;;;2.05;0.93;;;;;;;;;;5105550;28;20084;-77
2023/03/20 14:11:13;;;;;;;3.10;0.95;;;;;;;;;;5105390;28;20063;-77
2023/03/20 14:13:43;;;;;;;1.48;0.80;;;;;;;;;;5101468;28;20043;-77
2023/03/20 14:16:10;;;;;;;1.73;0.88;;;;;;;;;;5108400;28;20069;-77
2023/03/20 14:18:36;;;;;;;2.70;1.50;;;;;;;;;;5104004;28;20467;-76
2023/03/20 14:21:10;;;;;;;9.23;4.35;;;;;;;;;;5100866;28;20043;-77
2023/03/20 14:23:38;;;;;;;6.82;3.17;;;;;;;;;;5109780;28;20096;-75
2023/03/20 14:26:09;;;;;;;3.33;1.10;;;;;;;;;;5102559;28;20036;-77
2023/03/20 14:28:56;;;;;;;2.13;0.82;;;;;;;;;;5097499;28;20051;-77
2023/03/20 14:31:26;;;;;;;4.53;1.95;;;;;;;;;;5107387;28;20053;-77
2023/03/20 14:34:05;;;;;;;10.40;6.03;;;;;;;;;;5110063;28;20078;-77
2023/03/20 14:37:02;;;;;;;6.93;4.43;;;;;;;;;;5105663;28;20080;-77
2023/03/20 14:39:45;;;;;;;8.60;4.65;;;;;;;;;;5068225;28;20498;-76
2023/03/20 14:42:14;;;;;;;4.35;2.53;;;;;;;;;;5100752;28;20122;-76
2023/03/20 14:45:06;;;;;;;3.10;1.65;;;;;;;;;;5110604;28;20474;-77
2023/03/20 14:47:43;;;;;;;16.48;8.95;;;;;;;;;;5104824;28;20035;-77
2023/03/20 14:50:13;;;;;;;8.95;4.70;;;;;;;;;;5105876;28;20044;-76
2023/03/20 14:52:48;;;;;;;6.68;3.83;;;;;;;;;;5106607;28;20032;-76
2023/03/20 14:55:52;;;;;;;5.43;3.22;;;;;;;;;;5098506;28;20055;-76
2023/03/20 14:58:52;;;;;;;4.28;2.25;;;;;;;;;;5078901;28;20131;-76
2023/03/20 15:01:20;;;;;;;6.00;3.05;;;;;;;;;;5101987;28;20532;-76
2023/03/20 15:03:57;;;;;;;2.60;1.27;;;;;;;;;;5102841;28;20075;-76